Time;durP1;ratioP1;P1;durP2;ratioP2;P2;SDS_P1;SDS_P2;PMS_P1;PMS_P2;Temp;Humidity;BMP_temperature;BMP_pressure;BME280_temperature;BME280_humidity;BME280_pressure;Samples;Min_cycle;Max_cycle;Signal;HPM_P1;HPM_P2
2023/08/31 00:00:32;;;;;;;1.88;1.20;;;;;;;;;;5052121;28;20033;-88
2023/08/31 00:02:58;;;;;;;1.95;1.00;;;;;;;;;;5056250;28;20081;-88
2023/08/31 00:05:27;;;;;;;1.33;1.23;;;;;;;;;;5056015;28;20032;-88
2023/08/31 00:07:52;;;;;;;1.50;1.40;;;;;;;;;;5055031;28;20075;-88
2023/08/31 00:10:18;;;;;;;1.35;1.25;;;;;;;;;;5055279;28;20476;-87
2023/08/31 00:12:43;;;;;;;1.73;1.08;;;;;;;;;;5055052;28;20020;-87
2023/08/31 00:15:09;;;;;;;1.10;1.10;;;;;;;;;;5054716;28;20480;-88
2023/08/31 00:17:35;;;;;;;1.15;1.10;;;;;;;;;;5071762;28;20025;-87
2023/08/31 00:20:00;;;;;;;1.92;1.20;;;;;;;;;;5051176;28;20029;-87
2023/08/31 00:22:26;;;;;;;2.17;1.33;;;;;;;;;;5055168;28;20027;-86
2023/08/31 00:24:52;;;;;;;1.13;1.08;;;;;;;;;;5056382;28;20040;-87
2023/08/31 00:27:18;;;;;;;4.15;1.30;;;;;;;;;;5054037;28;20029;-88
2023/08/31 00:29:49;;;;;;;2.97;1.70;;;;;;;;;;5055514;28;20445;-87
2023/08/31 00:32:14;;;;;;;1.25;1.10;;;;;;;;;;5055762;28;20565;-87
2023/08/31 00:34:40;;;;;;;1.52;1.20;;;;;;;;;;5054415;28;20071;-87
2023/08/31 00:37:05;;;;;;;1.60;1.50;;;;;;;;;;5053324;28;20013;-87
2023/08/31 00:39:31;;;;;;;1.58;1.27;;;;;;;;;;5056686;28;20029;-88
2023/08/31 00:41:56;;;;;;;1.50;1.40;;;;;;;;;;5055078;28;20023;-88
2023/08/31 00:44:22;;;;;;;2.25;1.48;;;;;;;;;;5054623;28;20025;-87
2023/08/31 00:46:49;;;;;;;2.03;1.40;;;;;;;;;;5053662;28;20363;-86
2023/08/31 00:49:14;;;;;;;2.03;1.17;;;;;;;;;;5052033;28;20466;-86
2023/08/31 00:51:40;;;;;;;1.70;1.45;;;;;;;;;;5053670;28;20041;-86
2023/08/31 00:54:06;;;;;;;3.42;1.40;;;;;;;;;;5053451;28;20017;-87
2023/08/31 00:56:32;;;;;;;2.00;1.02;;;;;;;;;;5053799;28;20032;-87
2023/08/31 00:58:57;;;;;;;3.50;1.45;;;;;;;;;;5052900;28;20080;-86
2023/08/31 01:02:04;;;;;;;1.65;1.30;;;;;;;;;;5052880;28;20071;-86
2023/08/31 01:04:59;;;;;;;2.63;1.35;;;;;;;;;;5034842;28;20033;-88
2023/08/31 01:07:40;;;;;;;2.30;1.13;;;;;;;;;;5021121;28;20038;-88
2023/08/31 01:10:21;;;;;;;2.50;1.33;;;;;;;;;;5062484;28;20022;-87
2023/08/31 01:12:51;;;;;;;2.08;1.25;;;;;;;;;;5057689;28;20020;-88
2023/08/31 01:15:18;;;;;;;1.67;1.55;;;;;;;;;;5060104;28;20028;-86
2023/08/31 01:17:53;;;;;;;2.58;1.60;;;;;;;;;;5058764;28;20080;-87
2023/08/31 01:20:28;;;;;;;2.15;1.27;;;;;;;;;;5057696;28;20025;-88
2023/08/31 01:23:07;;;;;;;2.33;1.55;;;;;;;;;;5058150;28;20555;-88
2023/08/31 01:25:33;;;;;;;1.00;1.00;;;;;;;;;;5065859;28;20028;-86
2023/08/31 01:27:59;;;;;;;2.10;1.63;;;;;;;;;;5066200;28;20023;-86
2023/08/31 01:30:25;;;;;;;1.80;1.38;;;;;;;;;;5063286;28;20043;-88
2023/08/31 01:32:50;;;;;;;5.55;1.58;;;;;;;;;;5063498;28;20391;-87
2023/08/31 01:35:19;;;;;;;1.42;1.33;;;;;;;;;;5065398;28;20384;-88
2023/08/31 01:37:52;;;;;;;1.88;1.58;;;;;;;;;;5057997;28;20029;-88
2023/08/31 01:40:27;;;;;;;2.70;1.40;;;;;;;;;;5061473;28;20050;-86
2023/08/31 01:42:55;;;;;;;2.08;1.88;;;;;;;;;;5060703;28;20025;-87
2023/08/31 01:45:21;;;;;;;1.40;1.27;;;;;;;;;;5074034;28;20028;-87
2023/08/31 01:47:48;;;;;;;3.60;1.52;;;;;;;;;;5061473;28;20074;-88
2023/08/31 01:50:13;;;;;;;1.88;1.60;;;;;;;;;;5060655;28;20029;-87
2023/08/31 01:52:38;;;;;;;1.58;1.48;;;;;;;;;;5058470;28;20064;-86
2023/08/31 01:55:06;;;;;;;4.68;1.50;;;;;;;;;;5056271;28;20021;-88
2023/08/31 01:57:32;;;;;;;3.50;1.50;;;;;;;;;;5070141;22;20068;-81
2023/08/31 01:59:57;;;;;;;2.38;1.65;;;;;;;;;;5033219;28;20089;-82
2023/08/31 02:02:23;;;;;;;1.70;1.60;;;;;;;;;;5047991;28;20116;-82
2023/08/31 02:04:48;;;;;;;2.85;1.73;;;;;;;;;;5052056;28;20040;-81
2023/08/31 02:07:14;;;;;;;4.05;1.60;;;;;;;;;;5033000;28;20034;-82
2023/08/31 02:09:39;;;;;;;8.73;2.15;;;;;;;;;;5033556;28;20025;-82
2023/08/31 02:12:05;;;;;;;2.08;1.52;;;;;;;;;;5041522;28;20035;-82
2023/08/31 02:14:30;;;;;;;1.85;1.40;;;;;;;;;;5049796;28;20032;-81
2023/08/31 02:16:55;;;;;;;1.40;1.30;;;;;;;;;;5032259;28;20020;-82
2023/08/31 02:19:21;;;;;;;2.22;1.60;;;;;;;;;;5030239;28;20080;-82
2023/08/31 02:21:46;;;;;;;1.95;1.70;;;;;;;;;;5049415;28;20028;-82
2023/08/31 02:24:11;;;;;;;1.70;1.40;;;;;;;;;;5046494;28;20112;-81
2023/08/31 02:26:37;;;;;;;1.30;1.20;;;;;;;;;;5039906;28;20017;-82
2023/08/31 02:29:03;;;;;;;1.33;1.23;;;;;;;;;;5041802;28;20052;-83
2023/08/31 02:31:28;;;;;;;1.60;1.35;;;;;;;;;;5047584;28;20020;-81
2023/08/31 02:33:53;;;;;;;1.45;1.17;;;;;;;;;;5047967;28;20021;-82
2023/08/31 02:36:20;;;;;;;1.73;1.35;;;;;;;;;;5040327;28;20028;-82
2023/08/31 02:38:46;;;;;;;1.33;1.20;;;;;;;;;;5033078;28;20480;-82
2023/08/31 02:41:11;;;;;;;1.63;1.38;;;;;;;;;;5050740;28;20033;-82
2023/08/31 02:43:37;;;;;;;2.15;1.30;;;;;;;;;;5037758;28;20045;-82
2023/08/31 02:46:03;;;;;;;1.83;1.63;;;;;;;;;;5040096;28;20021;-83
2023/08/31 02:48:29;;;;;;;1.35;1.25;;;;;;;;;;5048506;28;20033;-82
2023/08/31 02:50:57;;;;;;;3.13;1.58;;;;;;;;;;5045687;28;20062;-82
2023/08/31 02:53:23;;;;;;;3.08;1.27;;;;;;;;;;5046397;28;20029;-82
2023/08/31 02:55:50;;;;;;;0.90;0.90;;;;;;;;;;5045732;28;20391;-82
2023/08/31 02:58:16;;;;;;;1.15;1.10;;;;;;;;;;5056751;28;20835;-83
2023/08/31 03:00:42;;;;;;;1.38;1.10;;;;;;;;;;5034466;28;20480;-82
2023/08/31 03:03:08;;;;;;;2.88;1.27;;;;;;;;;;5044307;28;20037;-82
2023/08/31 03:05:34;;;;;;;1.15;1.10;;;;;;;;;;5043850;28;20024;-82
2023/08/31 03:07:59;;;;;;;1.70;1.08;;;;;;;;;;5039674;28;20036;-83
2023/08/31 03:10:25;;;;;;;1.02;0.98;;;;;;;;;;5042070;28;20041;-82
2023/08/31 03:12:50;;;;;;;2.13;1.50;;;;;;;;;;5036134;28;20025;-82
2023/08/31 03:15:15;;;;;;;1.25;1.15;;;;;;;;;;5037365;28;20029;-82
2023/08/31 03:17:41;;;;;;;3.25;1.20;;;;;;;;;;5036965;28;20040;-82
2023/08/31 03:20:07;;;;;;;1.45;1.30;;;;;;;;;;5039986;28;20042;-82
2023/08/31 03:22:33;;;;;;;1.30;1.23;;;;;;;;;;5039072;28;20438;-83
2023/08/31 03:24:58;;;;;;;1.48;1.20;;;;;;;;;;5034600;28;20055;-82
2023/08/31 03:27:25;;;;;;;2.53;1.50;;;;;;;;;;5041501;28;20047;-82
2023/08/31 03:29:50;;;;;;;1.23;1.13;;;;;;;;;;5035273;28;20026;-82
2023/08/31 03:32:16;;;;;;;4.47;1.33;;;;;;;;;;5031027;28;20034;-83
2023/08/31 03:34:41;;;;;;;0.93;0.93;;;;;;;;;;5031673;28;20041;-82
2023/08/31 03:37:06;;;;;;;2.05;1.30;;;;;;;;;;5032805;28;20029;-82
2023/08/31 03:39:31;;;;;;;1.63;1.23;;;;;;;;;;5035193;28;20189;-83
2023/08/31 03:41:57;;;;;;;1.90;1.38;;;;;;;;;;5034005;28;20067;-82
2023/08/31 03:44:22;;;;;;;1.75;1.42;;;;;;;;;;5035692;28;20026;-82
2023/08/31 03:46:48;;;;;;;1.60;1.38;;;;;;;;;;5036393;28;20017;-82
2023/08/31 03:49:13;;;;;;;1.30;1.20;;;;;;;;;;5034185;28;20044;-82
2023/08/31 03:51:38;;;;;;;1.30;1.20;;;;;;;;;;5035060;28;20048;-82
2023/08/31 03:54:04;;;;;;;1.80;1.25;;;;;;;;;;5034572;28;20025;-82
2023/08/31 03:56:29;;;;;;;1.60;1.50;;;;;;;;;;5034450;28;20021;-82
2023/08/31 03:58:54;;;;;;;1.45;1.25;;;;;;;;;;5035473;28;20057;-82
2023/08/31 04:01:20;;;;;;;1.60;1.13;;;;;;;;;;5035170;28;20052;-82
2023/08/31 04:03:45;;;;;;;2.60;1.08;;;;;;;;;;5035518;28;20033;-81
2023/08/31 04:06:10;;;;;;;0.98;0.98;;;;;;;;;;5034956;28;20056;-82
2023/08/31 04:08:36;;;;;;;1.42;1.08;;;;;;;;;;5036443;28;20045;-82
2023/08/31 04:11:01;;;;;;;1.52;1.25;;;;;;;;;;5036217;28;20025;-81
2023/08/31 04:13:27;;;;;;;1.55;1.35;;;;;;;;;;5040162;28;20018;-81
2023/08/31 04:15:53;;;;;;;2.15;1.70;;;;;;;;;;5039301;28;20025;-81
2023/08/31 04:18:18;;;;;;;2.35;1.60;;;;;;;;;;5037453;28;20040;-82
2023/08/31 04:20:51;;;;;;;1.73;1.30;;;;;;;;;;5033774;28;20530;-82
2023/08/31 04:23:20;;;;;;;2.65;1.20;;;;;;;;;;5033964;28;20033;-82
2023/08/31 04:25:47;;;;;;;0.82;0.82;;;;;;;;;;5032912;28;20060;-82
2023/08/31 04:28:13;;;;;;;1.63;1.27;;;;;;;;;;5033737;28;20079;-82
2023/08/31 04:30:40;;;;;;;1.40;1.30;;;;;;;;;;5031399;28;20033;-82
2023/08/31 04:33:06;;;;;;;1.85;1.45;;;;;;;;;;5033150;28;20100;-82
2023/08/31 04:35:31;;;;;;;1.33;1.27;;;;;;;;;;5033016;28;20025;-83
2023/08/31 04:37:57;;;;;;;1.40;1.30;;;;;;;;;;5032769;28;20040;-82
2023/08/31 04:40:22;;;;;;;1.58;1.30;;;;;;;;;;5032220;28;20025;-82
2023/08/31 04:42:48;;;;;;;1.08;1.05;;;;;;;;;;5032556;28;20034;-82
2023/08/31 04:45:13;;;;;;;1.50;1.13;;;;;;;;;;5032358;28;20038;-83
2023/08/31 04:47:39;;;;;;;1.20;1.10;;;;;;;;;;5031237;28;20037;-82
2023/08/31 04:50:06;;;;;;;1.05;1.05;;;;;;;;;;5033377;28;20029;-82
2023/08/31 04:52:32;;;;;;;3.60;1.50;;;;;;;;;;5032469;28;20017;-82
2023/08/31 04:54:57;;;;;;;0.88;0.88;;;;;;;;;;5033510;28;20112;-82
2023/08/31 04:57:23;;;;;;;1.70;1.48;;;;;;;;;;5032638;28;20021;-82
2023/08/31 04:59:49;;;;;;;1.35;1.25;;;;;;;;;;5032277;28;20033;-81
2023/08/31 05:02:14;;;;;;;5.43;1.38;;;;;;;;;;5033332;28;20029;-82
2023/08/31 05:04:40;;;;;;;1.20;1.08;;;;;;;;;;5031117;28;20033;-83
2023/08/31 05:07:06;;;;;;;2.20;1.50;;;;;;;;;;5031717;28;20021;-83
2023/08/31 05:09:34;;;;;;;1.60;1.50;;;;;;;;;;5031598;28;20022;-83
2023/08/31 05:12:00;;;;;;;1.52;1.35;;;;;;;;;;5031738;28;20033;-82
2023/08/31 05:14:26;;;;;;;1.48;1.38;;;;;;;;;;5032632;28;20013;-82
2023/08/31 05:16:51;;;;;;;1.90;1.30;;;;;;;;;;5030915;28;20490;-82
2023/08/31 05:19:16;;;;;;;2.70;1.40;;;;;;;;;;5031945;28;20041;-83
2023/08/31 05:21:42;;;;;;;3.58;1.48;;;;;;;;;;5031421;28;20934;-82
2023/08/31 05:24:07;;;;;;;1.58;1.13;;;;;;;;;;5032509;28;20041;-81
2023/08/31 05:26:32;;;;;;;1.50;1.17;;;;;;;;;;5031931;28;20109;-83
2023/08/31 05:28:58;;;;;;;1.40;1.30;;;;;;;;;;5029839;28;20017;-82
2023/08/31 05:31:24;;;;;;;1.83;1.23;;;;;;;;;;5030803;28;20056;-81
2023/08/31 05:33:49;;;;;;;2.40;1.38;;;;;;;;;;5031629;28;20021;-82
2023/08/31 05:36:14;;;;;;;1.63;1.45;;;;;;;;;;5032130;28;20112;-82
2023/08/31 05:38:40;;;;;;;1.20;1.10;;;;;;;;;;5031294;28;20145;-83
2023/08/31 05:41:06;;;;;;;1.55;1.20;;;;;;;;;;5031723;28;20147;-82
2023/08/31 05:43:33;;;;;;;4.18;1.48;;;;;;;;;;5031723;28;20017;-83
2023/08/31 05:45:58;;;;;;;1.45;1.35;;;;;;;;;;5030587;28;20163;-82
2023/08/31 05:48:24;;;;;;;1.52;1.23;;;;;;;;;;5032376;28;20053;-83
2023/08/31 05:50:49;;;;;;;2.13;1.45;;;;;;;;;;5031913;28;20387;-82
2023/08/31 05:53:14;;;;;;;1.60;1.40;;;;;;;;;;5032619;28;20033;-83
2023/08/31 05:55:40;;;;;;;1.50;1.40;;;;;;;;;;5032075;28;20053;-82
2023/08/31 05:58:05;;;;;;;1.52;1.23;;;;;;;;;;5030262;28;20025;-82
2023/08/31 06:00:30;;;;;;;5.18;1.60;;;;;;;;;;5031841;28;20025;-82
2023/08/31 06:02:56;;;;;;;3.15;1.40;;;;;;;;;;5031664;28;20029;-82
2023/08/31 06:05:21;;;;;;;1.80;1.20;;;;;;;;;;5032606;28;20086;-82
2023/08/31 06:07:46;;;;;;;1.30;1.20;;;;;;;;;;5031957;28;20022;-84
2023/08/31 06:10:13;;;;;;;1.65;1.13;;;;;;;;;;5031444;28;20025;-83
2023/08/31 06:12:38;;;;;;;2.15;1.65;;;;;;;;;;5035479;28;20021;-83
2023/08/31 06:15:04;;;;;;;2.05;1.40;;;;;;;;;;5031374;28;20027;-82
2023/08/31 06:17:29;;;;;;;1.17;1.08;;;;;;;;;;5030518;28;20026;-83
2023/08/31 06:19:55;;;;;;;3.90;1.25;;;;;;;;;;5030583;28;20017;-83
2023/08/31 06:22:22;;;;;;;2.53;1.50;;;;;;;;;;5029428;28;20017;-82
2023/08/31 06:24:48;;;;;;;2.35;1.40;;;;;;;;;;5032802;28;20112;-82
2023/08/31 06:27:15;;;;;;;2.58;1.33;;;;;;;;;;5030873;28;20073;-83
2023/08/31 06:29:41;;;;;;;1.30;1.20;;;;;;;;;;5029633;28;21292;-83
2023/08/31 06:32:06;;;;;;;2.10;1.20;;;;;;;;;;5030614;28;20086;-83
2023/08/31 06:34:32;;;;;;;1.83;1.35;;;;;;;;;;5031756;28;20017;-83
2023/08/31 06:36:58;;;;;;;1.05;0.93;;;;;;;;;;5031053;28;20036;-83
2023/08/31 06:39:24;;;;;;;4.40;1.30;;;;;;;;;;5029054;28;20388;-83
2023/08/31 06:41:49;;;;;;;2.08;1.02;;;;;;;;;;5031598;28;20025;-82
2023/08/31 06:44:15;;;;;;;1.17;1.08;;;;;;;;;;5031276;28;20131;-82
2023/08/31 06:46:40;;;;;;;1.40;1.08;;;;;;;;;;5030548;28;20052;-82
2023/08/31 06:49:05;;;;;;;1.50;1.00;;;;;;;;;;5035521;28;20044;-82
2023/08/31 06:51:33;;;;;;;1.98;1.40;;;;;;;;;;5037397;28;20135;-82
2023/08/31 06:54:05;;;;;;;1.42;0.90;;;;;;;;;;5033339;28;20045;-82
2023/08/31 06:56:31;;;;;;;2.55;1.33;;;;;;;;;;5036738;28;20021;-83
2023/08/31 06:58:56;;;;;;;3.55;1.38;;;;;;;;;;5030707;28;20029;-82
2023/08/31 07:01:22;;;;;;;4.78;1.50;;;;;;;;;;5031395;28;20025;-82
2023/08/31 07:03:47;;;;;;;5.22;1.17;;;;;;;;;;5032053;28;20056;-82
2023/08/31 07:06:12;;;;;;;1.40;1.20;;;;;;;;;;5043059;28;20052;-80
2023/08/31 07:08:40;;;;;;;1.15;1.00;;;;;;;;;;5036725;28;20020;-82
2023/08/31 07:26:28;;;;;;;4.32;1.20;;;;;;;;;;5079607;28;20048;-82
2023/08/31 07:28:54;;;;;;;1.15;1.05;;;;;;;;;;5079311;28;20036;-81
2023/08/31 07:31:19;;;;;;;2.35;1.30;;;;;;;;;;5057484;28;20379;-82
2023/08/31 07:37:09;;;;;;;2.93;1.53;;;;;;;;;;5051594;28;20095;-82
2023/08/31 07:39:35;;;;;;;2.10;1.23;;;;;;;;;;5046289;28;20078;-81
2023/08/31 07:42:00;;;;;;;1.10;1.10;;;;;;;;;;5060546;28;20020;-82
2023/08/31 07:44:26;;;;;;;1.60;0.98;;;;;;;;;;5049050;28;20053;-81
2023/08/31 07:46:51;;;;;;;1.42;1.10;;;;;;;;;;5051168;28;20472;-81
2023/08/31 07:49:16;;;;;;;1.30;1.20;;;;;;;;;;5045053;28;20029;-81
2023/08/31 07:51:42;;;;;;;2.55;1.17;;;;;;;;;;5058594;28;20095;-81
2023/08/31 07:54:07;;;;;;;0.80;0.80;;;;;;;;;;5052724;28;20024;-81
2023/08/31 07:56:32;;;;;;;3.13;1.13;;;;;;;;;;5048184;28;20592;-81
2023/08/31 07:58:58;;;;;;;1.25;1.00;;;;;;;;;;5064445;28;20035;-81
2023/08/31 08:01:23;;;;;;;1.70;1.00;;;;;;;;;;5063150;28;20029;-81
2023/08/31 08:03:49;;;;;;;1.30;1.15;;;;;;;;;;5053394;28;20028;-81
2023/08/31 08:06:14;;;;;;;2.15;1.27;;;;;;;;;;5063230;28;20032;-82
2023/08/31 08:08:39;;;;;;;1.52;1.00;;;;;;;;;;5054252;28;20021;-81
2023/08/31 08:11:05;;;;;;;1.85;1.23;;;;;;;;;;5051804;28;20608;-81
2023/08/31 08:13:30;;;;;;;3.00;1.05;;;;;;;;;;5039803;28;20450;-81
2023/08/31 08:15:55;;;;;;;1.98;0.85;;;;;;;;;;5047722;28;20020;-81
2023/08/31 08:18:21;;;;;;;2.10;1.17;;;;;;;;;;5038733;28;20390;-80
2023/08/31 08:20:53;;;;;;;1.13;1.02;;;;;;;;;;5029829;28;20387;-81
2023/08/31 08:23:19;;;;;;;3.70;1.20;;;;;;;;;;5040177;28;20034;-80
2023/08/31 08:25:44;;;;;;;2.67;1.10;;;;;;;;;;5049745;28;20047;-81
2023/08/31 08:28:09;;;;;;;1.17;1.08;;;;;;;;;;5062400;28;20044;-81
2023/08/31 08:30:35;;;;;;;1.52;1.10;;;;;;;;;;5050034;28;20023;-81
2023/08/31 08:33:00;;;;;;;1.92;1.30;;;;;;;;;;5046293;28;20028;-81
2023/08/31 08:35:25;;;;;;;3.95;1.15;;;;;;;;;;5058564;28;20499;-80
2023/08/31 08:37:52;;;;;;;4.88;1.20;;;;;;;;;;5051930;28;20043;-81
2023/08/31 08:40:17;;;;;;;1.60;0.95;;;;;;;;;;5057704;28;20112;-81
2023/08/31 08:42:47;;;;;;;1.77;1.13;;;;;;;;;;5045309;28;20053;-80
2023/08/31 08:45:15;;;;;;;3.72;1.50;;;;;;;;;;5048727;28;20090;-81
2023/08/31 08:47:43;;;;;;;2.35;1.23;;;;;;;;;;5044977;28;20024;-81
2023/08/31 08:50:11;;;;;;;1.85;0.90;;;;;;;;;;5047722;28;20502;-81
2023/08/31 08:52:37;;;;;;;1.73;1.05;;;;;;;;;;5039520;28;20108;-80
2023/08/31 08:55:04;;;;;;;2.50;1.42;;;;;;;;;;5055305;28;20025;-80
2023/08/31 08:57:31;;;;;;;4.47;1.25;;;;;;;;;;5050014;28;20048;-81
2023/08/31 08:59:57;;;;;;;1.85;1.10;;;;;;;;;;5044481;28;20025;-81
2023/08/31 09:02:23;;;;;;;1.65;1.10;;;;;;;;;;5039499;28;20057;-80
2023/08/31 09:04:48;;;;;;;4.30;1.80;;;;;;;;;;5046324;28;20028;-80
2023/08/31 09:07:13;;;;;;;2.22;1.30;;;;;;;;;;5049593;28;20030;-81
2023/08/31 09:09:50;;;;;;;2.10;1.30;;;;;;;;;;5039100;28;20021;-81
2023/08/31 09:12:15;;;;;;;3.10;1.50;;;;;;;;;;5039812;28;20029;-81
2023/08/31 09:14:41;;;;;;;1.75;1.38;;;;;;;;;;5060892;28;20024;-80
2023/08/31 09:17:06;;;;;;;2.55;1.40;;;;;;;;;;5047148;28;20017;-81
2023/08/31 09:19:31;;;;;;;2.97;0.95;;;;;;;;;;5027817;28;20090;-81
2023/08/31 09:21:57;;;;;;;3.72;1.13;;;;;;;;;;5052512;28;20029;-81
2023/08/31 09:24:23;;;;;;;1.38;1.27;;;;;;;;;;5050743;28;20016;-82
2023/08/31 09:26:54;;;;;;;0.93;0.80;;;;;;;;;;5051743;28;20452;-82
2023/08/31 09:29:20;;;;;;;2.67;1.38;;;;;;;;;;5034514;28;20033;-81
2023/08/31 09:31:46;;;;;;;2.47;1.30;;;;;;;;;;5056726;28;20021;-80
2023/08/31 09:34:12;;;;;;;2.72;1.40;;;;;;;;;;5050223;28;20017;-81
2023/08/31 09:36:38;;;;;;;1.67;1.00;;;;;;;;;;5038374;28;20024;-81
2023/08/31 09:39:05;;;;;;;2.65;1.52;;;;;;;;;;5039793;28;20048;-81
2023/08/31 09:41:30;;;;;;;1.45;1.10;;;;;;;;;;5046677;28;20033;-80
2023/08/31 09:43:55;;;;;;;1.65;1.05;;;;;;;;;;5053443;28;20052;-81
2023/08/31 09:46:22;;;;;;;1.33;1.00;;;;;;;;;;5058078;28;20021;-82
2023/08/31 09:48:48;;;;;;;2.97;1.27;;;;;;;;;;5052498;28;20468;-81
2023/08/31 09:51:22;;;;;;;3.92;1.30;;;;;;;;;;5029611;28;20033;-83
2023/08/31 09:53:49;;;;;;;1.10;1.00;;;;;;;;;;5038671;28;20013;-81
2023/08/31 09:56:20;;;;;;;2.42;1.33;;;;;;;;;;5047010;28;20029;-81
2023/08/31 09:58:46;;;;;;;1.50;0.95;;;;;;;;;;5051017;28;20025;-80
2023/08/31 10:01:12;;;;;;;2.03;1.10;;;;;;;;;;5047179;28;20061;-81
2023/08/31 10:03:38;;;;;;;1.27;1.00;;;;;;;;;;5024015;28;20021;-81
2023/08/31 10:06:04;;;;;;;1.33;1.20;;;;;;;;;;5043234;28;20025;-81
2023/08/31 10:08:31;;;;;;;2.55;1.10;;;;;;;;;;5054931;28;20395;-81
2023/08/31 10:10:59;;;;;;;2.10;0.90;;;;;;;;;;5051845;28;20028;-82
2023/08/31 10:13:26;;;;;;;0.80;0.80;;;;;;;;;;5048310;28;20074;-82
2023/08/31 10:15:52;;;;;;;1.92;1.15;;;;;;;;;;5033780;28;20028;-81
2023/08/31 10:18:18;;;;;;;1.30;0.82;;;;;;;;;;5046726;28;20037;-81
2023/08/31 10:20:45;;;;;;;1.58;1.00;;;;;;;;;;5038156;28;20064;-81
2023/08/31 10:23:10;;;;;;;2.83;1.00;;;;;;;;;;5043742;28;20029;-82
2023/08/31 10:25:45;;;;;;;3.00;1.67;;;;;;;;;;5042856;28;20046;-82
2023/08/31 10:28:19;;;;;;;1.60;1.00;;;;;;;;;;5053722;28;20036;-82
2023/08/31 10:31:04;;;;;;;1.33;0.98;;;;;;;;;;5033008;28;20021;-82
2023/08/31 10:33:43;;;;;;;3.40;1.25;;;;;;;;;;5045958;28;20032;-82
2023/08/31 10:36:13;;;;;;;1.85;1.30;;;;;;;;;;5050447;28;20485;-81
2023/08/31 10:38:39;;;;;;;2.00;0.93;;;;;;;;;;5043908;28;20132;-81
2023/08/31 10:41:07;;;;;;;1.95;1.02;;;;;;;;;;5038564;28;20049;-81
2023/08/31 10:43:54;;;;;;;1.85;0.93;;;;;;;;;;5032953;28;20021;-81
2023/08/31 10:46:49;;;;;;;1.83;1.23;;;;;;;;;;5047329;28;20507;-82
2023/08/31 10:49:17;;;;;;;1.27;0.90;;;;;;;;;;5030113;28;20162;-81
2023/08/31 10:51:44;;;;;;;3.55;1.63;;;;;;;;;;5032543;28;20402;-81
2023/08/31 10:54:24;;;;;;;2.58;1.35;;;;;;;;;;5045611;28;20080;-81
2023/08/31 10:57:07;;;;;;;1.92;1.10;;;;;;;;;;5037408;28;20091;-80
2023/08/31 10:59:55;;;;;;;1.30;1.20;;;;;;;;;;5043139;28;20468;-79
2023/08/31 11:02:42;;;;;;;2.47;1.45;;;;;;;;;;5037582;28;20018;-80
2023/08/31 11:05:09;;;;;;;5.18;1.25;;;;;;;;;;5035505;28;20021;-79
2023/08/31 11:07:35;;;;;;;2.67;1.10;;;;;;;;;;5040083;28;20510;-78
2023/08/31 11:10:22;;;;;;;3.63;1.20;;;;;;;;;;5040896;28;20076;-77
2023/08/31 11:12:50;;;;;;;1.88;1.20;;;;;;;;;;5034427;28;20531;-77
2023/08/31 11:15:17;;;;;;;3.33;0.77;;;;;;;;;;5033306;28;20032;-77
2023/08/31 11:17:43;;;;;;;1.65;1.30;;;;;;;;;;5031148;28;20678;-77
2023/08/31 11:20:13;;;;;;;1.42;1.10;;;;;;;;;;5035616;28;20395;-77
2023/08/31 11:22:43;;;;;;;1.25;1.08;;;;;;;;;;5043236;28;20460;-77
2023/08/31 11:25:11;;;;;;;1.65;1.00;;;;;;;;;;5033363;28;20068;-78
2023/08/31 11:27:37;;;;;;;1.50;1.02;;;;;;;;;;5035039;28;20033;-81
2023/08/31 11:30:04;;;;;;;2.25;1.52;;;;;;;;;;5050163;28;20017;-78
2023/08/31 11:32:29;;;;;;;2.03;1.30;;;;;;;;;;5037635;28;20036;-78
2023/08/31 11:34:54;;;;;;;2.30;0.90;;;;;;;;;;5051211;28;20029;-78
2023/08/31 11:37:20;;;;;;;3.20;1.90;;;;;;;;;;5052525;28;20025;-77
2023/08/31 11:39:50;;;;;;;1.65;0.98;;;;;;;;;;5051443;28;20047;-78
2023/08/31 11:42:18;;;;;;;1.77;1.17;;;;;;;;;;5046102;28;20169;-78
2023/08/31 11:44:44;;;;;;;4.03;1.30;;;;;;;;;;5034095;28;20018;-79
2023/08/31 11:47:10;;;;;;;2.22;1.20;;;;;;;;;;5044910;28;20029;-79
2023/08/31 11:49:35;;;;;;;2.85;1.15;;;;;;;;;;5041204;28;20075;-78
2023/08/31 11:52:01;;;;;;;1.75;1.20;;;;;;;;;;5027955;28;20025;-81
2023/08/31 11:54:26;;;;;;;2.17;1.20;;;;;;;;;;5047869;28;20032;-81
2023/08/31 11:56:51;;;;;;;4.55;1.33;;;;;;;;;;5062260;28;20169;-80
2023/08/31 11:59:18;;;;;;;2.50;1.13;;;;;;;;;;5054997;28;20088;-81
2023/08/31 12:01:47;;;;;;;1.45;1.17;;;;;;;;;;5040804;28;20021;-80
2023/08/31 12:04:14;;;;;;;3.85;1.50;;;;;;;;;;5053446;28;20025;-80
2023/08/31 12:06:40;;;;;;;1.23;1.05;;;;;;;;;;5031529;28;20384;-80
2023/08/31 12:09:09;;;;;;;1.80;1.20;;;;;;;;;;5041224;28;20483;-78
2023/08/31 12:11:34;;;;;;;3.92;1.17;;;;;;;;;;5051901;28;20083;-81
2023/08/31 12:14:17;;;;;;;1.50;1.35;;;;;;;;;;5046752;28;20520;-80
2023/08/31 12:16:43;;;;;;;1.40;0.98;;;;;;;;;;5054048;28;22237;-79
2023/08/31 12:19:09;;;;;;;1.15;0.82;;;;;;;;;;5056177;28;20122;-80
2023/08/31 12:21:34;;;;;;;2.17;1.13;;;;;;;;;;5065002;28;20028;-82
2023/08/31 12:24:00;;;;;;;2.75;1.77;;;;;;;;;;5067784;28;20391;-80
2023/08/31 12:26:26;;;;;;;2.65;0.98;;;;;;;;;;5064033;28;20027;-80
2023/08/31 12:28:52;;;;;;;2.15;1.10;;;;;;;;;;5069655;28;20041;-80
2023/08/31 12:31:17;;;;;;;4.80;1.05;;;;;;;;;;5067465;28;20458;-80
2023/08/31 12:33:43;;;;;;;4.80;1.35;;;;;;;;;;5046604;28;20017;-80
2023/08/31 12:36:08;;;;;;;2.65;1.10;;;;;;;;;;5060677;28;20560;-78
2023/08/31 12:38:34;;;;;;;1.85;1.00;;;;;;;;;;5063660;28;20111;-79
2023/08/31 12:40:59;;;;;;;1.80;1.25;;;;;;;;;;5050878;28;20021;-80
2023/08/31 12:43:24;;;;;;;3.10;1.20;;;;;;;;;;5059457;28;20052;-79
2023/08/31 12:45:50;;;;;;;1.90;1.15;;;;;;;;;;5027474;28;20598;-79
2023/08/31 12:48:15;;;;;;;1.00;0.90;;;;;;;;;;5029593;28;20488;-78
2023/08/31 12:50:40;;;;;;;1.52;1.08;;;;;;;;;;5048487;28;20024;-80
2023/08/31 12:53:06;;;;;;;3.33;1.10;;;;;;;;;;5040588;28;20025;-81
2023/08/31 12:55:31;;;;;;;2.83;1.67;;;;;;;;;;5030547;28;20025;-80
2023/08/31 12:57:57;;;;;;;2.65;1.38;;;;;;;;;;5039977;28;20032;-80
2023/08/31 13:00:23;;;;;;;3.03;0.98;;;;;;;;;;5044360;28;20029;-80
2023/08/31 13:02:50;;;;;;;1.48;1.00;;;;;;;;;;5030625;28;20064;-80
2023/08/31 13:05:16;;;;;;;2.45;1.17;;;;;;;;;;5051152;28;20024;-80
2023/08/31 13:07:41;;;;;;;1.88;1.00;;;;;;;;;;5039483;28;20025;-80
2023/08/31 13:10:07;;;;;;;2.38;1.20;;;;;;;;;;5046258;28;20044;-80
2023/08/31 13:12:33;;;;;;;4.15;1.45;;;;;;;;;;5039079;28;20052;-80
2023/08/31 13:14:59;;;;;;;3.70;1.30;;;;;;;;;;5054899;28;20471;-80
2023/08/31 13:17:26;;;;;;;3.45;1.10;;;;;;;;;;5040388;28;20171;-80
2023/08/31 13:19:53;;;;;;;3.03;1.25;;;;;;;;;;5047976;28;20045;-80
2023/08/31 13:22:18;;;;;;;1.15;1.00;;;;;;;;;;5027003;28;20025;-80
2023/08/31 13:24:43;;;;;;;1.10;1.00;;;;;;;;;;5043931;28;20040;-80
2023/08/31 13:27:09;;;;;;;2.20;1.30;;;;;;;;;;5059357;28;20039;-80
2023/08/31 13:29:34;;;;;;;2.15;1.08;;;;;;;;;;5042432;28;20083;-80
2023/08/31 13:31:59;;;;;;;3.08;1.25;;;;;;;;;;5054977;28;20498;-81
2023/08/31 13:34:24;;;;;;;1.73;1.02;;;;;;;;;;5044155;28;20022;-80
2023/08/31 13:36:50;;;;;;;1.83;0.95;;;;;;;;;;5030918;28;20017;-81
2023/08/31 13:39:16;;;;;;;2.40;1.20;;;;;;;;;;5053024;28;20036;-79
2023/08/31 13:41:41;;;;;;;2.25;1.10;;;;;;;;;;5052145;28;20025;-81
2023/08/31 13:44:07;;;;;;;0.90;0.82;;;;;;;;;;5044346;28;20031;-83
2023/08/31 13:46:32;;;;;;;1.98;0.98;;;;;;;;;;5042227;28;20021;-80
2023/08/31 13:48:57;;;;;;;1.70;1.00;;;;;;;;;;5051360;28;20033;-80
2023/08/31 13:51:23;;;;;;;2.08;1.50;;;;;;;;;;5039287;28;20143;-80
2023/08/31 13:53:48;;;;;;;1.70;1.20;;;;;;;;;;5051071;28;20024;-79
2023/08/31 13:56:13;;;;;;;2.28;1.25;;;;;;;;;;5062096;28;20041;-78
2023/08/31 13:58:39;;;;;;;1.35;1.00;;;;;;;;;;5045492;28;20032;-79
2023/08/31 14:01:05;;;;;;;3.45;1.27;;;;;;;;;;5047069;28;20052;-78
2023/08/31 14:03:30;;;;;;;3.75;1.70;;;;;;;;;;5054984;28;20032;-79
2023/08/31 14:05:56;;;;;;;2.17;1.30;;;;;;;;;;5041962;28;20103;-79
2023/08/31 14:08:21;;;;;;;2.67;1.90;;;;;;;;;;5044225;28;20029;-80
2023/08/31 14:10:46;;;;;;;2.08;1.35;;;;;;;;;;5043678;28;20033;-79
2023/08/31 14:13:12;;;;;;;5.15;1.23;;;;;;;;;;5059850;28;20032;-80
2023/08/31 14:15:43;;;;;;;1.83;1.27;;;;;;;;;;5061191;28;20036;-79
2023/08/31 14:18:09;;;;;;;3.05;1.70;;;;;;;;;;5043010;28;20033;-79
2023/08/31 14:20:34;;;;;;;3.17;1.23;;;;;;;;;;5065592;28;20063;-79
2023/08/31 14:23:00;;;;;;;3.70;0.95;;;;;;;;;;5045978;28;20075;-79
2023/08/31 14:25:25;;;;;;;2.17;1.13;;;;;;;;;;5035530;28;20024;-80
2023/08/31 14:27:51;;;;;;;1.10;1.00;;;;;;;;;;5042822;28;20024;-80
2023/08/31 14:30:16;;;;;;;1.38;1.20;;;;;;;;;;5060371;28;20021;-79
2023/08/31 14:32:41;;;;;;;2.92;1.02;;;;;;;;;;5051751;28;20020;-79
2023/08/31 14:35:07;;;;;;;3.50;1.80;;;;;;;;;;5058748;28;20049;-79
2023/08/31 14:37:32;;;;;;;1.95;0.88;;;;;;;;;;5050863;28;20037;-79
2023/08/31 14:39:58;;;;;;;1.88;1.25;;;;;;;;;;5055154;28;20017;-78
2023/08/31 14:42:23;;;;;;;2.60;0.70;;;;;;;;;;5059451;28;20108;-79
2023/08/31 14:44:51;;;;;;;2.50;1.10;;;;;;;;;;5054268;28;20028;-80
2023/08/31 14:47:16;;;;;;;1.20;1.10;;;;;;;;;;5057662;28;20029;-79
2023/08/31 14:49:42;;;;;;;1.90;1.10;;;;;;;;;;5043354;28;20052;-79
2023/08/31 14:52:07;;;;;;;2.17;1.02;;;;;;;;;;5038878;28;20177;-79
2023/08/31 14:54:35;;;;;;;2.40;1.27;;;;;;;;;;5042075;28;20041;-80
2023/08/31 14:57:03;;;;;;;2.85;1.10;;;;;;;;;;5052000;28;20017;-80
2023/08/31 14:59:29;;;;;;;1.65;1.30;;;;;;;;;;5036496;28;20033;-79